sensor_id;sensor_type;location;lat;lon;timestamp;P1;durP1;ratioP1;P2;durP2;ratioP2
20970;SDS011;10644;48.834;10.088;2023-04-10T00:01:01;25.87;;;12.47;;
20970;SDS011;10644;48.834;10.088;2023-04-10T00:03:26;20.87;;;12.17;;
20970;SDS011;10644;48.834;10.088;2023-04-10T00:05:52;20.47;;;9.10;;
20970;SDS011;10644;48.834;10.088;2023-04-10T00:08:19;27.95;;;14.75;;
20970;SDS011;10644;48.834;10.088;2023-04-10T00:10:45;23.30;;;12.65;;
20970;SDS011;10644;48.834;10.088;2023-04-10T00:13:11;22.37;;;12.63;;
20970;SDS011;10644;48.834;10.088;2023-04-10T00:15:36;23.10;;;13.93;;
20970;SDS011;10644;48.834;10.088;2023-04-10T00:18:01;31.57;;;14.43;;
20970;SDS011;10644;48.834;10.088;2023-04-10T00:20:27;20.00;;;10.70;;
20970;SDS011;10644;48.834;10.088;2023-04-10T00:22:52;23.17;;;12.87;;
20970;SDS011;10644;48.834;10.088;2023-04-10T00:25:18;23.00;;;12.80;;
20970;SDS011;10644;48.834;10.088;2023-04-10T00:27:44;24.63;;;13.20;;
20970;SDS011;10644;48.834;10.088;2023-04-10T00:30:11;23.50;;;12.85;;
20970;SDS011;10644;48.834;10.088;2023-04-10T00:32:37;22.27;;;12.73;;
20970;SDS011;10644;48.834;10.088;2023-04-10T00:35:02;23.83;;;13.53;;
20970;SDS011;10644;48.834;10.088;2023-04-10T00:37:27;22.83;;;12.70;;
20970;SDS011;10644;48.834;10.088;2023-04-10T00:39:53;25.60;;;12.90;;
20970;SDS011;10644;48.834;10.088;2023-04-10T00:42:20;20.08;;;12.40;;
20970;SDS011;10644;48.834;10.088;2023-04-10T00:44:46;26.83;;;12.70;;
20970;SDS011;10644;48.834;10.088;2023-04-10T00:47:11;21.67;;;11.80;;
20970;SDS011;10644;48.834;10.088;2023-04-10T00:49:38;22.10;;;10.07;;
20970;SDS011;10644;48.834;10.088;2023-04-10T00:52:07;26.02;;;13.70;;
20970;SDS011;10644;48.834;10.088;2023-04-10T00:54:32;24.47;;;12.80;;
20970;SDS011;10644;48.834;10.088;2023-04-10T00:57:00;25.85;;;13.80;;
20970;SDS011;10644;48.834;10.088;2023-04-10T00:59:27;24.40;;;13.40;;
20970;SDS011;10644;48.834;10.088;2023-04-10T01:01:52;24.63;;;12.53;;
20970;SDS011;10644;48.834;10.088;2023-04-10T01:04:18;19.20;;;10.80;;
20970;SDS011;10644;48.834;10.088;2023-04-10T01:09:44;27.80;;;13.60;;
20970;SDS011;10644;48.834;10.088;2023-04-10T01:12:20;27.48;;;12.90;;
20970;SDS011;10644;48.834;10.088;2023-04-10T01:14:49;21.85;;;12.45;;
20970;SDS011;10644;48.834;10.088;2023-04-10T01:17:31;26.52;;;11.95;;
20970;SDS011;10644;48.834;10.088;2023-04-10T01:20:05;23.77;;;13.32;;
20970;SDS011;10644;48.834;10.088;2023-04-10T01:22:35;22.20;;;12.30;;
20970;SDS011;10644;48.834;10.088;2023-04-10T01:30:35;24.45;;;13.23;;
20970;SDS011;10644;48.834;10.088;2023-04-10T01:33:02;25.73;;;13.43;;
20970;SDS011;10644;48.834;10.088;2023-04-10T01:35:29;26.00;;;12.90;;
20970;SDS011;10644;48.834;10.088;2023-04-10T01:37:58;27.00;;;12.93;;
20970;SDS011;10644;48.834;10.088;2023-04-10T01:40:26;18.40;;;8.52;;
20970;SDS011;10644;48.834;10.088;2023-04-10T01:42:54;23.52;;;12.63;;
20970;SDS011;10644;48.834;10.088;2023-04-10T01:45:21;25.48;;;12.00;;
20970;SDS011;10644;48.834;10.088;2023-04-10T01:47:53;23.80;;;13.52;;
20970;SDS011;10644;48.834;10.088;2023-04-10T01:50:20;23.75;;;13.57;;
20970;SDS011;10644;48.834;10.088;2023-04-10T01:52:48;24.27;;;12.77;;
20970;SDS011;10644;48.834;10.088;2023-04-10T01:55:15;28.20;;;14.10;;
20970;SDS011;10644;48.834;10.088;2023-04-10T01:57:42;27.00;;;13.23;;
20970;SDS011;10644;48.834;10.088;2023-04-10T02:00:09;22.17;;;12.20;;
20970;SDS011;10644;48.834;10.088;2023-04-10T02:02:35;26.25;;;13.20;;
20970;SDS011;10644;48.834;10.088;2023-04-10T02:05:01;24.43;;;13.60;;
20970;SDS011;10644;48.834;10.088;2023-04-10T02:07:33;23.27;;;14.23;;
20970;SDS011;10644;48.834;10.088;2023-04-10T02:10:08;24.75;;;13.35;;
20970;SDS011;10644;48.834;10.088;2023-04-10T02:12:45;21.15;;;12.13;;
20970;SDS011;10644;48.834;10.088;2023-04-10T02:15:18;20.55;;;12.23;;
20970;SDS011;10644;48.834;10.088;2023-04-10T02:17:45;24.73;;;13.27;;
20970;SDS011;10644;48.834;10.088;2023-04-10T02:20:12;23.70;;;11.80;;
20970;SDS011;10644;48.834;10.088;2023-04-10T02:22:39;18.70;;;11.55;;
20970;SDS011;10644;48.834;10.088;2023-04-10T02:25:08;17.67;;;11.02;;
20970;SDS011;10644;48.834;10.088;2023-04-10T02:27:34;17.35;;;11.32;;
20970;SDS011;10644;48.834;10.088;2023-04-10T02:30:01;19.13;;;11.68;;
20970;SDS011;10644;48.834;10.088;2023-04-10T02:32:30;18.58;;;11.27;;
20970;SDS011;10644;48.834;10.088;2023-04-10T02:34:59;23.40;;;12.85;;
20970;SDS011;10644;48.834;10.088;2023-04-10T02:37:26;21.48;;;12.40;;
20970;SDS011;10644;48.834;10.088;2023-04-10T02:39:51;23.13;;;12.00;;
20970;SDS011;10644;48.834;10.088;2023-04-10T02:42:18;19.02;;;12.60;;
20970;SDS011;10644;48.834;10.088;2023-04-10T02:44:44;18.53;;;11.20;;
20970;SDS011;10644;48.834;10.088;2023-04-10T02:47:09;19.67;;;11.40;;
20970;SDS011;10644;48.834;10.088;2023-04-10T02:49:35;21.20;;;12.10;;
20970;SDS011;10644;48.834;10.088;2023-04-10T02:52:00;23.60;;;12.60;;
20970;SDS011;10644;48.834;10.088;2023-04-10T02:54:26;23.77;;;12.63;;
20970;SDS011;10644;48.834;10.088;2023-04-10T02:56:54;19.60;;;11.30;;
20970;SDS011;10644;48.834;10.088;2023-04-10T02:59:21;19.45;;;12.10;;
20970;SDS011;10644;48.834;10.088;2023-04-10T03:01:46;21.53;;;11.63;;
20970;SDS011;10644;48.834;10.088;2023-04-10T03:04:12;24.53;;;13.37;;
20970;SDS011;10644;48.834;10.088;2023-04-10T03:06:37;21.23;;;12.23;;
20970;SDS011;10644;48.834;10.088;2023-04-10T03:09:03;20.93;;;12.23;;
20970;SDS011;10644;48.834;10.088;2023-04-10T03:11:28;21.37;;;11.90;;
20970;SDS011;10644;48.834;10.088;2023-04-10T03:13:54;20.10;;;12.20;;
20970;SDS011;10644;48.834;10.088;2023-04-10T03:16:22;17.00;;;10.38;;
20970;SDS011;10644;48.834;10.088;2023-04-10T03:18:47;23.40;;;11.20;;
20970;SDS011;10644;48.834;10.088;2023-04-10T03:21:13;19.10;;;11.30;;
20970;SDS011;10644;48.834;10.088;2023-04-10T03:23:38;17.33;;;10.67;;
20970;SDS011;10644;48.834;10.088;2023-04-10T03:26:03;21.63;;;11.77;;
20970;SDS011;10644;48.834;10.088;2023-04-10T03:28:31;19.17;;;11.45;;
20970;SDS011;10644;48.834;10.088;2023-04-10T03:30:59;21.17;;;10.90;;
20970;SDS011;10644;48.834;10.088;2023-04-10T03:33:24;20.73;;;12.63;;
20970;SDS011;10644;48.834;10.088;2023-04-10T03:35:50;17.37;;;11.17;;
20970;SDS011;10644;48.834;10.088;2023-04-10T03:38:15;19.77;;;11.13;;
20970;SDS011;10644;48.834;10.088;2023-04-10T03:40:41;23.13;;;13.90;;
20970;SDS011;10644;48.834;10.088;2023-04-10T03:43:06;25.07;;;12.57;;
20970;SDS011;10644;48.834;10.088;2023-04-10T03:45:31;22.60;;;12.40;;
20970;SDS011;10644;48.834;10.088;2023-04-10T03:47:59;20.05;;;12.60;;
20970;SDS011;10644;48.834;10.088;2023-04-10T03:50:24;45.37;;;25.23;;
20970;SDS011;10644;48.834;10.088;2023-04-10T03:52:50;19.60;;;12.40;;
20970;SDS011;10644;48.834;10.088;2023-04-10T03:55:16;20.17;;;11.53;;
20970;SDS011;10644;48.834;10.088;2023-04-10T03:57:45;23.33;;;14.23;;
20970;SDS011;10644;48.834;10.088;2023-04-10T04:00:12;22.05;;;11.93;;
20970;SDS011;10644;48.834;10.088;2023-04-10T04:02:37;15.85;;;10.45;;
20970;SDS011;10644;48.834;10.088;2023-04-10T04:05:03;25.93;;;14.83;;
20970;SDS011;10644;48.834;10.088;2023-04-10T04:07:28;22.73;;;12.73;;
20970;SDS011;10644;48.834;10.088;2023-04-10T04:09:54;18.73;;;11.30;;
20970;SDS011;10644;48.834;10.088;2023-04-10T04:12:19;20.80;;;13.90;;
20970;SDS011;10644;48.834;10.088;2023-04-10T04:14:45;22.80;;;12.50;;
20970;SDS011;10644;48.834;10.088;2023-04-10T04:17:10;21.03;;;11.80;;
20970;SDS011;10644;48.834;10.088;2023-04-10T04:19:36;26.03;;;13.07;;
20970;SDS011;10644;48.834;10.088;2023-04-10T04:22:01;22.07;;;12.53;;
20970;SDS011;10644;48.834;10.088;2023-04-10T04:24:26;25.63;;;12.67;;
20970;SDS011;10644;48.834;10.088;2023-04-10T04:26:52;23.83;;;12.70;;
20970;SDS011;10644;48.834;10.088;2023-04-10T04:29:17;19.93;;;11.00;;
20970;SDS011;10644;48.834;10.088;2023-04-10T04:31:43;22.40;;;12.17;;
20970;SDS011;10644;48.834;10.088;2023-04-10T04:34:08;21.00;;;10.90;;
20970;SDS011;10644;48.834;10.088;2023-04-10T04:36:33;22.37;;;12.13;;
20970;SDS011;10644;48.834;10.088;2023-04-10T04:38:59;21.27;;;12.00;;
20970;SDS011;10644;48.834;10.088;2023-04-10T04:41:24;22.23;;;11.03;;
20970;SDS011;10644;48.834;10.088;2023-04-10T04:43:49;20.93;;;11.17;;
20970;SDS011;10644;48.834;10.088;2023-04-10T04:46:17;22.92;;;12.25;;
20970;SDS011;10644;48.834;10.088;2023-04-10T04:48:42;17.50;;;10.53;;
20970;SDS011;10644;48.834;10.088;2023-04-10T04:51:08;19.00;;;10.90;;
20970;SDS011;10644;48.834;10.088;2023-04-10T04:53:33;20.40;;;11.40;;
20970;SDS011;10644;48.834;10.088;2023-04-10T04:55:58;16.67;;;9.37;;
20970;SDS011;10644;48.834;10.088;2023-04-10T04:58:24;23.47;;;12.07;;
20970;SDS011;10644;48.834;10.088;2023-04-10T05:00:52;24.70;;;11.93;;
20970;SDS011;10644;48.834;10.088;2023-04-10T05:03:18;22.38;;;11.30;;
20970;SDS011;10644;48.834;10.088;2023-04-10T05:05:44;19.27;;;9.60;;
20970;SDS011;10644;48.834;10.088;2023-04-10T05:08:09;23.90;;;11.17;;
20970;SDS011;10644;48.834;10.088;2023-04-10T05:10:35;21.83;;;9.20;;
20970;SDS011;10644;48.834;10.088;2023-04-10T05:13:00;26.17;;;12.80;;
20970;SDS011;10644;48.834;10.088;2023-04-10T05:15:26;23.00;;;11.47;;
20970;SDS011;10644;48.834;10.088;2023-04-10T05:17:51;20.57;;;10.90;;
20970;SDS011;10644;48.834;10.088;2023-04-10T05:20:17;20.90;;;11.30;;
20970;SDS011;10644;48.834;10.088;2023-04-10T05:22:46;25.98;;;13.50;;
20970;SDS011;10644;48.834;10.088;2023-04-10T05:25:11;27.20;;;13.40;;
20970;SDS011;10644;48.834;10.088;2023-04-10T05:27:37;21.37;;;11.37;;
20970;SDS011;10644;48.834;10.088;2023-04-10T05:30:02;28.73;;;9.80;;
20970;SDS011;10644;48.834;10.088;2023-04-10T05:32:28;19.83;;;9.20;;
20970;SDS011;10644;48.834;10.088;2023-04-10T05:34:53;18.80;;;10.03;;
20970;SDS011;10644;48.834;10.088;2023-04-10T05:37:18;23.17;;;12.30;;
20970;SDS011;10644;48.834;10.088;2023-04-10T05:39:44;22.57;;;11.87;;
20970;SDS011;10644;48.834;10.088;2023-04-10T05:42:11;21.23;;;11.43;;
20970;SDS011;10644;48.834;10.088;2023-04-10T05:44:37;25.30;;;13.07;;
20970;SDS011;10644;48.834;10.088;2023-04-10T05:47:03;23.00;;;10.90;;
20970;SDS011;10644;48.834;10.088;2023-04-10T05:49:28;24.13;;;10.80;;
20970;SDS011;10644;48.834;10.088;2023-04-10T05:51:54;24.90;;;10.40;;
20970;SDS011;10644;48.834;10.088;2023-04-10T05:54:19;20.47;;;10.67;;
20970;SDS011;10644;48.834;10.088;2023-04-10T05:56:47;19.77;;;10.10;;
20970;SDS011;10644;48.834;10.088;2023-04-10T05:59:12;19.73;;;10.43;;
20970;SDS011;10644;48.834;10.088;2023-04-10T06:01:38;23.53;;;10.47;;
20970;SDS011;10644;48.834;10.088;2023-04-10T06:04:04;17.95;;;9.20;;
20970;SDS011;10644;48.834;10.088;2023-04-10T06:06:30;18.20;;;10.23;;
20970;SDS011;10644;48.834;10.088;2023-04-10T06:08:58;21.90;;;10.82;;
20970;SDS011;10644;48.834;10.088;2023-04-10T06:11:26;16.90;;;9.68;;
20970;SDS011;10644;48.834;10.088;2023-04-10T06:13:51;12.30;;;7.30;;
20970;SDS011;10644;48.834;10.088;2023-04-10T06:16:18;18.42;;;11.00;;
20970;SDS011;10644;48.834;10.088;2023-04-10T06:18:45;17.27;;;9.43;;
20970;SDS011;10644;48.834;10.088;2023-04-10T06:21:11;17.50;;;8.82;;
20970;SDS011;10644;48.834;10.088;2023-04-10T06:23:37;16.43;;;9.33;;
20970;SDS011;10644;48.834;10.088;2023-04-10T06:26:02;15.47;;;9.20;;
20970;SDS011;10644;48.834;10.088;2023-04-10T06:28:27;14.30;;;9.10;;
20970;SDS011;10644;48.834;10.088;2023-04-10T06:30:55;14.77;;;9.00;;
20970;SDS011;10644;48.834;10.088;2023-04-10T06:33:23;17.70;;;9.98;;
20970;SDS011;10644;48.834;10.088;2023-04-10T06:35:49;14.50;;;8.80;;
20970;SDS011;10644;48.834;10.088;2023-04-10T06:38:15;19.48;;;9.10;;
20970;SDS011;10644;48.834;10.088;2023-04-10T06:40:40;15.47;;;8.80;;
20970;SDS011;10644;48.834;10.088;2023-04-10T06:43:06;17.37;;;9.40;;
20970;SDS011;10644;48.834;10.088;2023-04-10T06:45:31;15.93;;;9.20;;
20970;SDS011;10644;48.834;10.088;2023-04-10T06:47:56;20.90;;;10.43;;
20970;SDS011;10644;48.834;10.088;2023-04-10T06:50:22;15.97;;;9.43;;
20970;SDS011;10644;48.834;10.088;2023-04-10T06:52:47;17.13;;;8.93;;
20970;SDS011;10644;48.834;10.088;2023-04-10T06:55:17;13.77;;;8.57;;
20970;SDS011;10644;48.834;10.088;2023-04-10T06:57:42;17.13;;;8.70;;
20970;SDS011;10644;48.834;10.088;2023-04-10T07:00:08;16.07;;;9.07;;
20970;SDS011;10644;48.834;10.088;2023-04-10T07:02:33;16.67;;;9.40;;
20970;SDS011;10644;48.834;10.088;2023-04-10T07:04:59;14.77;;;8.80;;
20970;SDS011;10644;48.834;10.088;2023-04-10T07:07:24;18.40;;;9.93;;
20970;SDS011;10644;48.834;10.088;2023-04-10T07:09:50;17.70;;;10.47;;
20970;SDS011;10644;48.834;10.088;2023-04-10T07:12:18;15.90;;;9.23;;
20970;SDS011;10644;48.834;10.088;2023-04-10T07:14:43;16.43;;;9.20;;
20970;SDS011;10644;48.834;10.088;2023-04-10T07:17:09;14.20;;;9.40;;
20970;SDS011;10644;48.834;10.088;2023-04-10T07:19:34;16.20;;;9.60;;
20970;SDS011;10644;48.834;10.088;2023-04-10T07:22:00;17.17;;;9.67;;
20970;SDS011;10644;48.834;10.088;2023-04-10T07:24:25;18.20;;;9.77;;
20970;SDS011;10644;48.834;10.088;2023-04-10T07:26:51;14.07;;;9.20;;
20970;SDS011;10644;48.834;10.088;2023-04-10T07:29:16;14.27;;;9.57;;
20970;SDS011;10644;48.834;10.088;2023-04-10T07:31:42;14.17;;;8.70;;
20970;SDS011;10644;48.834;10.088;2023-04-10T07:34:09;14.00;;;8.40;;
20970;SDS011;10644;48.834;10.088;2023-04-10T07:36:35;20.70;;;11.00;;
20970;SDS011;10644;48.834;10.088;2023-04-10T07:39:00;15.20;;;9.40;;
20970;SDS011;10644;48.834;10.088;2023-04-10T07:41:25;16.57;;;10.67;;
20970;SDS011;10644;48.834;10.088;2023-04-10T07:43:51;14.87;;;6.40;;
20970;SDS011;10644;48.834;10.088;2023-04-10T07:46:16;18.27;;;9.20;;
20970;SDS011;10644;48.834;10.088;2023-04-10T07:48:42;26.77;;;11.10;;
20970;SDS011;10644;48.834;10.088;2023-04-10T07:51:08;14.27;;;9.07;;
20970;SDS011;10644;48.834;10.088;2023-04-10T07:53:35;18.30;;;10.40;;
20970;SDS011;10644;48.834;10.088;2023-04-10T07:56:01;17.47;;;9.90;;
20970;SDS011;10644;48.834;10.088;2023-04-10T07:58:26;15.97;;;9.30;;
20970;SDS011;10644;48.834;10.088;2023-04-10T08:00:52;18.87;;;8.63;;
20970;SDS011;10644;48.834;10.088;2023-04-10T08:03:17;14.73;;;8.50;;
20970;SDS011;10644;48.834;10.088;2023-04-10T08:05:48;13.77;;;5.83;;
20970;SDS011;10644;48.834;10.088;2023-04-10T08:08:14;17.53;;;9.40;;
20970;SDS011;10644;48.834;10.088;2023-04-10T08:10:40;13.20;;;8.60;;
20970;SDS011;10644;48.834;10.088;2023-04-10T08:13:06;16.10;;;9.43;;
20970;SDS011;10644;48.834;10.088;2023-04-10T08:15:31;17.60;;;10.20;;
20970;SDS011;10644;48.834;10.088;2023-04-10T08:17:56;17.57;;;10.20;;
20970;SDS011;10644;48.834;10.088;2023-04-10T08:20:24;13.77;;;9.40;;
20970;SDS011;10644;48.834;10.088;2023-04-10T08:22:50;15.43;;;9.47;;
20970;SDS011;10644;48.834;10.088;2023-04-10T08:25:15;16.30;;;10.10;;
20970;SDS011;10644;48.834;10.088;2023-04-10T08:27:41;14.00;;;8.77;;
20970;SDS011;10644;48.834;10.088;2023-04-10T08:30:06;14.07;;;8.97;;
20970;SDS011;10644;48.834;10.088;2023-04-10T08:32:32;15.50;;;10.17;;
20970;SDS011;10644;48.834;10.088;2023-04-10T08:34:57;18.70;;;9.37;;
20970;SDS011;10644;48.834;10.088;2023-04-10T08:37:24;15.87;;;9.87;;
20970;SDS011;10644;48.834;10.088;2023-04-10T08:39:50;16.20;;;9.97;;
20970;SDS011;10644;48.834;10.088;2023-04-10T08:42:15;16.77;;;9.90;;
20970;SDS011;10644;48.834;10.088;2023-04-10T08:44:41;16.67;;;8.50;;
20970;SDS011;10644;48.834;10.088;2023-04-10T08:47:06;12.83;;;8.50;;
20970;SDS011;10644;48.834;10.088;2023-04-10T08:52:25;23.00;;;12.03;;
20970;SDS011;10644;48.834;10.088;2023-04-10T08:54:56;29.47;;;15.17;;
20970;SDS011;10644;48.834;10.088;2023-04-10T08:57:24;17.83;;;9.97;;
20970;SDS011;10644;48.834;10.088;2023-04-10T08:59:50;12.93;;;8.20;;
20970;SDS011;10644;48.834;10.088;2023-04-10T09:02:17;16.83;;;8.90;;
20970;SDS011;10644;48.834;10.088;2023-04-10T09:04:50;13.73;;;8.80;;
20970;SDS011;10644;48.834;10.088;2023-04-10T09:07:19;14.90;;;8.97;;
20970;SDS011;10644;48.834;10.088;2023-04-10T09:09:44;16.30;;;9.80;;
20970;SDS011;10644;48.834;10.088;2023-04-10T09:12:11;14.97;;;8.20;;
20970;SDS011;10644;48.834;10.088;2023-04-10T09:14:40;17.20;;;9.70;;
20970;SDS011;10644;48.834;10.088;2023-04-10T09:22:44;15.77;;;8.80;;
20970;SDS011;10644;48.834;10.088;2023-04-10T09:25:27;10.60;;;7.77;;
20970;SDS011;10644;48.834;10.088;2023-04-10T09:28:02;10.03;;;6.97;;
20970;SDS011;10644;48.834;10.088;2023-04-10T09:30:40;12.33;;;7.30;;
20970;SDS011;10644;48.834;10.088;2023-04-10T09:33:22;15.83;;;8.00;;
20970;SDS011;10644;48.834;10.088;2023-04-10T09:35:51;13.63;;;7.20;;
20970;SDS011;10644;48.834;10.088;2023-04-10T09:38:17;14.33;;;8.77;;
20970;SDS011;10644;48.834;10.088;2023-04-10T09:40:44;12.80;;;8.50;;
20970;SDS011;10644;48.834;10.088;2023-04-10T09:43:23;22.93;;;8.00;;
20970;SDS011;10644;48.834;10.088;2023-04-10T09:45:54;13.00;;;8.50;;
20970;SDS011;10644;48.834;10.088;2023-04-10T09:48:21;10.93;;;7.03;;
20970;SDS011;10644;48.834;10.088;2023-04-10T09:50:48;10.90;;;7.73;;
20970;SDS011;10644;48.834;10.088;2023-04-10T09:53:15;14.13;;;8.87;;
20970;SDS011;10644;48.834;10.088;2023-04-10T09:55:43;11.87;;;7.37;;
20970;SDS011;10644;48.834;10.088;2023-04-10T09:58:12;9.13;;;6.20;;
20970;SDS011;10644;48.834;10.088;2023-04-10T10:00:47;10.90;;;6.70;;
20970;SDS011;10644;48.834;10.088;2023-04-10T10:03:17;11.03;;;6.50;;
20970;SDS011;10644;48.834;10.088;2023-04-10T10:05:47;9.40;;;5.43;;
20970;SDS011;10644;48.834;10.088;2023-04-10T10:08:14;8.70;;;6.37;;
20970;SDS011;10644;48.834;10.088;2023-04-10T10:10:45;7.63;;;5.70;;
20970;SDS011;10644;48.834;10.088;2023-04-10T10:13:15;10.30;;;6.40;;
20970;SDS011;10644;48.834;10.088;2023-04-10T10:21:12;8.07;;;5.50;;
20970;SDS011;10644;48.834;10.088;2023-04-10T10:23:38;14.43;;;9.10;;
20970;SDS011;10644;48.834;10.088;2023-04-10T10:26:04;10.97;;;6.50;;
20970;SDS011;10644;48.834;10.088;2023-04-10T10:28:31;9.70;;;6.97;;
20970;SDS011;10644;48.834;10.088;2023-04-10T10:30:58;10.60;;;6.77;;
20970;SDS011;10644;48.834;10.088;2023-04-10T10:33:25;7.93;;;5.90;;
20970;SDS011;10644;48.834;10.088;2023-04-10T10:35:51;10.63;;;6.77;;
20970;SDS011;10644;48.834;10.088;2023-04-10T10:38:17;11.53;;;6.83;;
20970;SDS011;10644;48.834;10.088;2023-04-10T10:46:09;10.37;;;6.37;;
20970;SDS011;10644;48.834;10.088;2023-04-10T10:48:38;8.97;;;5.73;;
20970;SDS011;10644;48.834;10.088;2023-04-10T10:51:04;8.53;;;5.80;;
20970;SDS011;10644;48.834;10.088;2023-04-10T10:58:52;8.38;;;5.95;;
20970;SDS011;10644;48.834;10.088;2023-04-10T11:01:19;8.90;;;6.07;;
20970;SDS011;10644;48.834;10.088;2023-04-10T11:03:46;8.13;;;5.90;;
20970;SDS011;10644;48.834;10.088;2023-04-10T11:08:50;11.43;;;7.23;;
20970;SDS011;10644;48.834;10.088;2023-04-10T11:11:20;7.53;;;6.10;;
20970;SDS011;10644;48.834;10.088;2023-04-10T11:19:06;23.87;;;10.00;;
20970;SDS011;10644;48.834;10.088;2023-04-10T11:21:43;13.73;;;7.60;;
20970;SDS011;10644;48.834;10.088;2023-04-10T11:24:26;8.13;;;5.53;;
20970;SDS011;10644;48.834;10.088;2023-04-10T11:26:52;11.43;;;7.13;;
20970;SDS011;10644;48.834;10.088;2023-04-10T11:31:58;7.47;;;5.20;;
20970;SDS011;10644;48.834;10.088;2023-04-10T11:34:24;10.10;;;5.87;;
20970;SDS011;10644;48.834;10.088;2023-04-10T11:36:51;13.70;;;6.37;;
20970;SDS011;10644;48.834;10.088;2023-04-10T11:39:40;10.00;;;6.80;;
20970;SDS011;10644;48.834;10.088;2023-04-10T11:42:08;8.43;;;5.47;;
20970;SDS011;10644;48.834;10.088;2023-04-10T11:44:35;7.97;;;5.13;;
20970;SDS011;10644;48.834;10.088;2023-04-10T11:47:03;6.83;;;4.97;;
20970;SDS011;10644;48.834;10.088;2023-04-10T11:49:30;6.83;;;4.83;;
20970;SDS011;10644;48.834;10.088;2023-04-10T11:51:56;9.27;;;5.30;;
20970;SDS011;10644;48.834;10.088;2023-04-10T11:54:23;8.83;;;6.50;;
20970;SDS011;10644;48.834;10.088;2023-04-10T11:59:33;8.03;;;5.20;;
20970;SDS011;10644;48.834;10.088;2023-04-10T12:02:12;5.80;;;5.07;;
20970;SDS011;10644;48.834;10.088;2023-04-10T12:04:39;7.27;;;5.37;;
20970;SDS011;10644;48.834;10.088;2023-04-10T12:07:05;8.40;;;5.20;;
20970;SDS011;10644;48.834;10.088;2023-04-10T12:09:34;7.87;;;4.00;;
20970;SDS011;10644;48.834;10.088;2023-04-10T12:12:03;12.60;;;8.50;;
20970;SDS011;10644;48.834;10.088;2023-04-10T12:16:59;7.00;;;4.67;;
20970;SDS011;10644;48.834;10.088;2023-04-10T12:19:26;6.83;;;4.93;;
20970;SDS011;10644;48.834;10.088;2023-04-10T12:21:54;5.40;;;4.03;;
20970;SDS011;10644;48.834;10.088;2023-04-10T12:24:40;14.53;;;6.23;;
20970;SDS011;10644;48.834;10.088;2023-04-10T12:27:30;3.93;;;3.53;;
20970;SDS011;10644;48.834;10.088;2023-04-10T12:29:55;7.50;;;4.30;;
20970;SDS011;10644;48.834;10.088;2023-04-10T12:32:21;6.23;;;4.27;;
20970;SDS011;10644;48.834;10.088;2023-04-10T12:34:51;8.40;;;4.90;;
20970;SDS011;10644;48.834;10.088;2023-04-10T12:37:18;5.23;;;3.97;;
20970;SDS011;10644;48.834;10.088;2023-04-10T12:39:47;5.33;;;4.70;;
20970;SDS011;10644;48.834;10.088;2023-04-10T12:42:22;16.00;;;7.17;;
20970;SDS011;10644;48.834;10.088;2023-04-10T12:47:23;5.40;;;3.90;;
20970;SDS011;10644;48.834;10.088;2023-04-10T12:50:02;20.07;;;8.97;;
20970;SDS011;10644;48.834;10.088;2023-04-10T12:52:37;7.30;;;5.20;;
20970;SDS011;10644;48.834;10.088;2023-04-10T12:57:41;4.40;;;3.90;;
20970;SDS011;10644;48.834;10.088;2023-04-10T13:00:12;6.67;;;4.67;;
20970;SDS011;10644;48.834;10.088;2023-04-10T13:02:39;4.90;;;3.90;;
20970;SDS011;10644;48.834;10.088;2023-04-10T13:05:08;4.70;;;4.23;;
20970;SDS011;10644;48.834;10.088;2023-04-10T13:07:34;4.90;;;3.80;;
20970;SDS011;10644;48.834;10.088;2023-04-10T13:10:03;6.50;;;4.70;;
20970;SDS011;10644;48.834;10.088;2023-04-10T13:12:30;5.47;;;3.70;;
20970;SDS011;10644;48.834;10.088;2023-04-10T13:14:56;5.80;;;3.97;;
20970;SDS011;10644;48.834;10.088;2023-04-10T13:17:22;5.80;;;4.10;;
20970;SDS011;10644;48.834;10.088;2023-04-10T13:19:50;5.10;;;4.30;;
20970;SDS011;10644;48.834;10.088;2023-04-10T13:22:16;7.30;;;4.80;;
20970;SDS011;10644;48.834;10.088;2023-04-10T13:24:42;4.33;;;3.77;;
20970;SDS011;10644;48.834;10.088;2023-04-10T13:27:08;6.63;;;3.53;;
20970;SDS011;10644;48.834;10.088;2023-04-10T13:29:34;5.83;;;4.47;;
20970;SDS011;10644;48.834;10.088;2023-04-10T13:32:03;4.73;;;3.90;;
20970;SDS011;10644;48.834;10.088;2023-04-10T13:34:32;4.60;;;3.87;;
20970;SDS011;10644;48.834;10.088;2023-04-10T13:36:58;4.00;;;3.60;;
20970;SDS011;10644;48.834;10.088;2023-04-10T13:39:27;6.00;;;4.43;;
20970;SDS011;10644;48.834;10.088;2023-04-10T13:41:53;3.60;;;3.00;;
20970;SDS011;10644;48.834;10.088;2023-04-10T13:44:18;5.27;;;3.70;;
20970;SDS011;10644;48.834;10.088;2023-04-10T13:46:44;4.50;;;3.33;;
20970;SDS011;10644;48.834;10.088;2023-04-10T13:49:09;4.07;;;3.20;;
20970;SDS011;10644;48.834;10.088;2023-04-10T13:51:34;6.40;;;4.00;;
20970;SDS011;10644;48.834;10.088;2023-04-10T13:54:00;5.53;;;3.70;;
20970;SDS011;10644;48.834;10.088;2023-04-10T13:56:28;5.90;;;4.17;;
20970;SDS011;10644;48.834;10.088;2023-04-10T13:58:54;4.50;;;3.53;;
20970;SDS011;10644;48.834;10.088;2023-04-10T14:01:19;4.10;;;3.00;;
20970;SDS011;10644;48.834;10.088;2023-04-10T14:03:45;6.73;;;4.17;;
20970;SDS011;10644;48.834;10.088;2023-04-10T14:06:10;6.00;;;3.80;;
20970;SDS011;10644;48.834;10.088;2023-04-10T14:08:35;6.20;;;3.60;;
20970;SDS011;10644;48.834;10.088;2023-04-10T14:11:01;6.43;;;3.57;;
20970;SDS011;10644;48.834;10.088;2023-04-10T14:13:26;12.20;;;3.70;;
20970;SDS011;10644;48.834;10.088;2023-04-10T14:15:51;5.80;;;3.90;;
20970;SDS011;10644;48.834;10.088;2023-04-10T14:18:17;7.63;;;4.30;;
20970;SDS011;10644;48.834;10.088;2023-04-10T14:20:43;3.87;;;3.00;;
20970;SDS011;10644;48.834;10.088;2023-04-10T14:23:09;4.90;;;3.60;;
20970;SDS011;10644;48.834;10.088;2023-04-10T14:25:40;3.60;;;2.90;;
20970;SDS011;10644;48.834;10.088;2023-04-10T14:28:06;3.90;;;3.33;;
20970;SDS011;10644;48.834;10.088;2023-04-10T14:30:41;4.57;;;3.37;;
20970;SDS011;10644;48.834;10.088;2023-04-10T14:33:06;5.10;;;3.77;;
20970;SDS011;10644;48.834;10.088;2023-04-10T14:35:32;5.60;;;4.03;;
20970;SDS011;10644;48.834;10.088;2023-04-10T14:37:57;5.37;;;3.60;;
20970;SDS011;10644;48.834;10.088;2023-04-10T14:40:23;4.33;;;3.60;;
20970;SDS011;10644;48.834;10.088;2023-04-10T14:42:49;5.27;;;3.80;;
20970;SDS011;10644;48.834;10.088;2023-04-10T14:45:17;8.90;;;3.80;;
20970;SDS011;10644;48.834;10.088;2023-04-10T14:47:43;4.20;;;3.63;;
20970;SDS011;10644;48.834;10.088;2023-04-10T14:50:09;6.27;;;4.37;;
20970;SDS011;10644;48.834;10.088;2023-04-10T14:52:35;7.40;;;4.03;;
20970;SDS011;10644;48.834;10.088;2023-04-10T14:55:00;7.00;;;4.27;;
20970;SDS011;10644;48.834;10.088;2023-04-10T14:57:26;6.17;;;4.20;;
20970;SDS011;10644;48.834;10.088;2023-04-10T14:59:53;4.70;;;3.30;;
20970;SDS011;10644;48.834;10.088;2023-04-10T15:02:19;4.07;;;3.17;;
20970;SDS011;10644;48.834;10.088;2023-04-10T15:04:44;3.93;;;3.53;;
20970;SDS011;10644;48.834;10.088;2023-04-10T15:07:10;5.97;;;3.57;;
20970;SDS011;10644;48.834;10.088;2023-04-10T15:09:36;4.13;;;3.10;;
20970;SDS011;10644;48.834;10.088;2023-04-10T15:12:02;5.90;;;3.90;;